createdAt,value
2023-02-19T00:00:34.016Z,11.90
2023-02-19T00:05:35.826Z,11.90
2023-02-19T00:10:37.798Z,12.00
2023-02-19T00:15:39.886Z,11.90
2023-02-19T00:20:42.176Z,12.00
2023-02-19T00:25:44.118Z,12.00
2023-02-19T00:30:50.443Z,11.90
2023-02-19T00:35:52.251Z,11.90
2023-02-19T00:40:55.863Z,11.90
2023-02-19T00:45:57.699Z,11.90
2023-02-19T00:50:59.520Z,11.90
2023-02-19T00:56:01.303Z,11.80
2023-02-19T01:01:03.706Z,11.80
2023-02-19T01:06:07.704Z,11.80
2023-02-19T01:11:10.310Z,11.80
2023-02-19T01:16:24.752Z,11.70
2023-02-19T01:21:28.190Z,11.70
2023-02-19T01:26:32.138Z,11.60
2023-02-19T01:31:34.264Z,11.60
2023-02-19T01:36:37.318Z,11.60
2023-02-19T01:41:41.342Z,11.60
2023-02-19T01:46:44.061Z,11.50
2023-02-19T01:51:49.455Z,11.50
2023-02-19T01:56:51.521Z,11.50
2023-02-19T02:01:53.451Z,11.40
2023-02-19T02:06:56.708Z,11.40
2023-02-19T02:11:58.627Z,11.30
2023-02-19T02:17:32.080Z,11.20
2023-02-19T02:22:52.500Z,11.10
2023-02-19T02:28:18.837Z,11.10
2023-02-19T02:33:26.560Z,11.10
2023-02-19T02:38:32.080Z,11.20
2023-02-19T02:43:33.912Z,11.20
2023-02-19T02:48:46.989Z,11.20
2023-02-19T02:54:32.318Z,11.10
2023-02-19T02:59:37.192Z,11.00
2023-02-19T03:05:12.818Z,10.90
2023-02-19T03:10:18.392Z,10.90
2023-02-19T03:15:38.855Z,10.80
2023-02-19T03:20:45.573Z,10.70
2023-02-19T03:26:06.076Z,10.70
2023-02-19T03:31:09.995Z,10.70
2023-02-19T03:36:15.604Z,10.70
2023-02-19T03:41:36.812Z,10.80
2023-02-19T03:46:44.742Z,10.70
2023-02-19T03:51:51.474Z,10.70
2023-02-19T03:56:58.506Z,10.60
2023-02-19T04:02:10.305Z,10.60
2023-02-19T04:07:12.330Z,10.60
2023-02-19T04:12:14.954Z,10.60
2023-02-19T04:17:31.629Z,10.60
2023-02-19T04:22:35.287Z,10.70
2023-02-19T04:27:38.907Z,10.70
2023-02-19T04:32:40.692Z,10.70
2023-02-19T04:37:42.541Z,10.70
2023-02-19T04:42:44.357Z,10.70
2023-02-19T04:47:46.240Z,10.60
2023-02-19T04:52:48.040Z,10.60
2023-02-19T04:57:49.878Z,10.60
2023-02-19T05:02:51.744Z,10.60
2023-02-19T05:07:53.734Z,10.60
2023-02-19T05:12:57.876Z,10.60
2023-02-19T05:17:59.909Z,10.60
2023-02-19T05:23:01.771Z,10.60
2023-02-19T05:28:19.293Z,10.60
2023-02-19T05:33:22.744Z,10.50
2023-02-19T05:38:24.841Z,10.50
2023-02-19T05:43:26.622Z,10.50
2023-02-19T05:48:28.437Z,10.50
2023-02-19T05:53:30.578Z,10.50
2023-02-19T05:58:32.393Z,10.40
2023-02-19T06:03:34.210Z,10.40
2023-02-19T06:08:36.101Z,10.30
2023-02-19T06:13:37.889Z,10.30
2023-02-19T06:18:42.209Z,10.30
2023-02-19T06:23:44.814Z,10.20
2023-02-19T06:28:48.535Z,10.20
2023-02-19T06:33:55.034Z,10.20
2023-02-19T06:39:00.036Z,10.20
2023-02-19T06:44:01.975Z,10.30
2023-02-19T06:49:13.225Z,10.30
2023-02-19T06:54:15.011Z,10.30
2023-02-19T06:59:16.954Z,10.40
2023-02-19T07:04:18.852Z,10.40
2023-02-19T07:09:20.736Z,10.50
2023-02-19T07:14:22.774Z,10.50
2023-02-19T07:19:24.564Z,10.50
2023-02-19T07:24:26.415Z,10.50
2023-02-19T07:29:28.390Z,10.50
2023-02-19T07:34:30.170Z,10.60
2023-02-19T07:39:31.953Z,10.70
2023-02-19T07:44:33.780Z,10.70
2023-02-19T07:49:35.600Z,10.90
2023-02-19T07:54:37.417Z,11.30
2023-02-19T07:59:39.195Z,12.00
2023-02-19T08:04:41.053Z,12.60
2023-02-19T08:09:42.861Z,12.60
2023-02-19T08:14:44.691Z,12.40
2023-02-19T08:19:46.498Z,12.40
2023-02-19T08:24:48.339Z,12.20
2023-02-19T08:29:50.563Z,12.00
2023-02-19T08:34:52.372Z,12.30
2023-02-19T08:39:57.307Z,12.70
2023-02-19T08:44:59.148Z,12.90
2023-02-19T08:50:01.004Z,13.00
2023-02-19T08:55:04.428Z,13.00
2023-02-19T09:00:07.303Z,13.10
2023-02-19T09:05:11.216Z,13.00
2023-02-19T09:10:14.321Z,12.90
2023-02-19T09:15:18.111Z,13.00
2023-02-19T09:20:20.003Z,13.50
2023-02-19T09:25:22.909Z,14.10
2023-02-19T09:30:31.253Z,14.70
2023-02-19T09:35:33.110Z,15.30
2023-02-19T09:40:49.687Z,15.30
2023-02-19T09:46:01.684Z,15.00
2023-02-19T09:51:04.270Z,15.30
2023-02-19T09:56:32.184Z,16.00
2023-02-19T10:01:38.551Z,16.60
2023-02-19T10:06:40.389Z,16.40
2023-02-19T10:11:42.269Z,16.50
2023-02-19T10:16:45.632Z,16.80
2023-02-19T10:21:47.523Z,16.50
2023-02-19T10:26:50.057Z,15.80
2023-02-19T10:32:12.480Z,15.40
2023-02-19T10:37:16.704Z,15.20
2023-02-19T10:42:20.809Z,15.20
2023-02-19T10:47:24.307Z,15.30
2023-02-19T10:52:34.282Z,15.20
2023-02-19T10:57:37.790Z,15.10
2023-02-19T11:02:39.712Z,14.90
2023-02-19T11:07:59.545Z,14.60
2023-02-19T11:13:03.202Z,14.40
2023-02-19T11:18:22.795Z,14.30
2023-02-19T11:23:30.114Z,14.20
2023-02-19T11:28:35.340Z,14.20
2023-02-19T11:33:44.129Z,14.10
2023-02-19T11:38:46.020Z,14.00
2023-02-19T11:44:06.211Z,13.90
2023-02-19T11:49:17.756Z,13.80
2023-02-19T11:54:35.962Z,13.70
2023-02-19T11:59:59.893Z,13.60
2023-02-19T12:05:26.853Z,13.50
2023-02-19T12:11:00.751Z,13.30
2023-02-19T12:16:16.183Z,13.20
2023-02-19T12:21:44.344Z,13.00
2023-02-19T12:27:04.028Z,12.90
2023-02-19T12:32:51.193Z,12.90
2023-02-19T12:38:11.060Z,12.90
2023-02-19T12:43:22.225Z,12.70
2023-02-19T12:54:23.868Z,12.30
2023-02-19T12:59:36.704Z,12.20
2023-02-19T13:04:54.774Z,12.20
2023-02-19T13:10:03.611Z,12.30
2023-02-19T13:15:15.279Z,12.40
2023-02-19T13:20:35.936Z,12.20
2023-02-19T13:25:44.216Z,12.10
2023-02-19T13:31:02.500Z,11.90
2023-02-19T13:36:20.434Z,11.60
2023-02-19T13:41:38.178Z,11.30
2023-02-19T13:46:42.701Z,11.00
2023-02-19T13:52:28.241Z,10.90
2023-02-19T14:02:35.068Z,10.40
2023-02-19T14:07:57.139Z,10.30
2023-02-19T14:12:58.986Z,10.30
2023-02-19T14:18:00.770Z,10.20
2023-02-19T14:23:15.815Z,10.20
2023-02-19T14:28:36.890Z,10.20
2023-02-19T14:33:40.990Z,10.30
2023-02-19T14:38:52.907Z,10.30
2023-02-19T14:43:56.716Z,10.40
2023-02-19T14:49:06.918Z,10.40
2023-02-19T14:54:18.161Z,10.50
2023-02-19T14:59:19.954Z,10.70
2023-02-19T15:04:24.499Z,10.70
2023-02-19T15:09:32.976Z,10.80
2023-02-19T15:14:34.953Z,10.80
2023-02-19T15:19:39.598Z,10.80
2023-02-19T15:24:48.254Z,10.70
2023-02-19T15:29:53.896Z,10.70
2023-02-19T15:35:01.132Z,10.70
2023-02-19T15:40:07.313Z,10.60
2023-02-19T15:45:20.751Z,10.00
2023-02-19T15:50:28.809Z,9.20
2023-02-19T16:00:47.416Z,8.40
2023-02-19T16:05:59.028Z,8.30
2023-02-19T16:11:03.498Z,8.20
2023-02-19T16:16:26.719Z,8.20
2023-02-19T16:21:28.944Z,8.10
2023-02-19T16:26:32.522Z,8.10
2023-02-19T16:31:35.109Z,8.10
2023-02-19T16:36:41.453Z,8.00
2023-02-19T16:41:46.969Z,8.00
2023-02-19T16:46:50.057Z,7.90
2023-02-19T16:51:51.888Z,7.90
2023-02-19T16:56:53.760Z,7.90
2023-02-19T17:01:55.589Z,7.90
2023-02-19T17:07:04.285Z,7.90
2023-02-19T17:12:11.270Z,7.90
2023-02-19T17:17:13.132Z,7.80
2023-02-19T17:22:17.360Z,7.80
2023-02-19T17:27:19.155Z,7.80
2023-02-19T17:32:21.072Z,7.90
2023-02-19T17:37:22.979Z,7.80
2023-02-19T17:42:25.909Z,7.80
2023-02-19T17:47:27.727Z,7.80
2023-02-19T17:52:29.640Z,7.80
2023-02-19T17:57:33.780Z,7.80
2023-02-19T18:02:36.022Z,7.70
2023-02-19T18:07:38.533Z,7.70
2023-02-19T18:12:40.337Z,7.60
2023-02-19T18:17:42.129Z,7.70
2023-02-19T18:22:46.018Z,7.60
2023-02-19T18:27:48.548Z,7.60
2023-02-19T18:32:51.580Z,7.60
2023-02-19T18:37:54.143Z,7.60
2023-02-19T18:42:56.186Z,7.60
2023-02-19T18:47:57.966Z,7.60
2023-02-19T18:53:04.632Z,7.60
2023-02-19T18:58:06.636Z,7.50
2023-02-19T19:03:09.477Z,7.50
2023-02-19T19:08:11.278Z,7.40
2023-02-19T19:13:14.187Z,7.30
2023-02-19T19:18:21.276Z,7.30
2023-02-19T19:23:24.200Z,7.20
2023-02-19T19:28:26.000Z,7.10
2023-02-19T19:33:28.250Z,7.00
2023-02-19T19:38:30.744Z,6.90
2023-02-19T19:43:34.928Z,6.80
2023-02-19T19:48:39.267Z,6.70
2023-02-19T19:53:41.125Z,6.60
2023-02-19T19:58:42.952Z,6.60
2023-02-19T20:03:44.745Z,6.60
2023-02-19T20:08:46.535Z,6.50
2023-02-19T20:13:50.385Z,6.50
2023-02-19T20:18:53.290Z,6.50
2023-02-19T20:23:56.165Z,6.40
2023-02-19T20:28:59.110Z,6.40
2023-02-19T20:34:01.051Z,6.40
2023-02-19T20:39:05.836Z,6.30
2023-02-19T20:44:07.984Z,6.30
2023-02-19T20:49:09.845Z,6.30
2023-02-19T20:54:12.423Z,6.20
2023-02-19T20:59:16.779Z,6.20
2023-02-19T21:04:19.219Z,6.20
2023-02-19T21:09:22.521Z,6.20
2023-02-19T21:14:24.358Z,6.20
2023-02-19T21:19:26.225Z,6.10
2023-02-19T21:24:32.802Z,6.10
2023-02-19T21:29:34.596Z,6.10
2023-02-19T21:34:38.485Z,6.10
2023-02-19T21:39:48.181Z,6.10
2023-02-19T21:44:50.083Z,6.00
2023-02-19T21:49:52.909Z,6.00
2023-02-19T21:54:54.711Z,6.00
2023-02-19T21:59:56.664Z,6.00
2023-02-19T22:04:58.939Z,6.00
2023-02-19T22:10:00.728Z,5.90
2023-02-19T22:15:02.546Z,5.90
2023-02-19T22:20:05.597Z,5.80
2023-02-19T22:25:07.899Z,5.80
2023-02-19T22:30:10.393Z,5.80
2023-02-19T22:35:13.329Z,5.80
2023-02-19T22:40:16.788Z,5.70
2023-02-19T22:45:19.249Z,5.70
2023-02-19T22:50:22.513Z,5.70
2023-02-19T22:55:26.773Z,5.70
2023-02-19T23:00:28.559Z,5.60
2023-02-19T23:05:30.456Z,5.60
2023-02-19T23:10:32.516Z,5.60
2023-02-19T23:15:36.849Z,5.60
2023-02-19T23:20:38.675Z,5.60
2023-02-19T23:25:45.972Z,5.60
2023-02-19T23:30:47.965Z,5.50
2023-02-19T23:35:49.972Z,5.50
2023-02-19T23:40:51.824Z,5.50
2023-02-19T23:45:54.147Z,5.50
2023-02-19T23:50:56.115Z,5.50
2023-02-19T23:55:59.025Z,5.40
